createdAt,value
2022-08-17T00:01:52.805Z,97130.88
2022-08-17T00:04:24.500Z,97129.90
2022-08-17T00:06:54.360Z,97132.02
2022-08-17T00:09:24.271Z,97127.76
2022-08-17T00:12:40.832Z,97129.55
2022-08-17T00:14:45.050Z,97126.70
2022-08-17T00:17:14.653Z,97131.52
2022-08-17T00:19:44.398Z,97132.77
2022-08-17T00:22:31.531Z,97131.14
2022-08-17T00:25:06.701Z,97130.58
2022-08-17T00:27:37.139Z,97132.52
2022-08-17T00:30:11.053Z,97127.67
2022-08-17T00:33:15.525Z,97128.67
2022-08-17T00:35:31.944Z,97128.48
2022-08-17T00:38:03.853Z,97130.16
2022-08-17T00:40:44.312Z,97132.29
2022-08-17T00:43:19.759Z,97128.80
2022-08-17T00:45:49.963Z,97130.79
2022-08-17T00:48:30.007Z,97128.08
2022-08-17T00:51:07.042Z,97128.41
2022-08-17T00:53:41.602Z,97126.29
2022-08-17T00:56:15.783Z,97127.50
2022-08-17T00:58:46.093Z,97122.27
2022-08-17T01:01:21.747Z,97118.05
2022-08-17T01:03:55.633Z,97122.27
2022-08-17T01:06:29.890Z,97121.30
2022-08-17T01:09:01.427Z,97122.02
2022-08-17T01:11:35.019Z,97117.95
2022-08-17T01:14:05.139Z,97120.35
2022-08-17T01:16:34.982Z,97118.66
2022-08-17T01:19:11.185Z,97116.50
2022-08-17T01:21:47.547Z,97113.96
2022-08-17T01:24:17.310Z,97119.06
2022-08-17T01:26:47.663Z,97120.03
2022-08-17T01:29:20.912Z,97119.52
2022-08-17T01:31:54.233Z,97116.63
2022-08-17T01:34:24.661Z,97118.92
2022-08-17T01:37:05.070Z,97120.69
2022-08-17T01:39:39.161Z,97121.39
2022-08-17T01:42:16.123Z,97123.13
2022-08-17T01:44:46.491Z,97125.45
2022-08-17T01:47:16.163Z,97128.19
2022-08-17T01:49:47.840Z,97125.08
2022-08-17T01:52:18.401Z,97124.92
2022-08-17T01:54:49.984Z,97121.71
2022-08-17T01:57:19.698Z,97121.80
2022-08-17T01:59:50.602Z,97122.28
2022-08-17T02:02:30.975Z,97127.74
2022-08-17T02:05:01.170Z,97131.20
2022-08-17T02:07:31.072Z,97132.42
2022-08-17T02:10:00.761Z,97132.65
2022-08-17T02:12:39.340Z,97134.05
2022-08-17T02:15:12.092Z,97135.30
2022-08-17T02:17:42.099Z,97137.67
2022-08-17T02:20:12.412Z,97136.64
2022-08-17T02:22:46.511Z,97140.98
2022-08-17T02:25:19.044Z,97146.17
2022-08-17T02:27:52.092Z,97144.94
2022-08-17T02:30:59.443Z,97146.66
2022-08-17T02:33:12.617Z,97148.86
2022-08-17T02:35:42.782Z,97150.35
2022-08-17T02:38:12.663Z,97151.46
2022-08-17T02:40:42.390Z,97148.63
2022-08-17T02:43:15.182Z,97145.41
2022-08-17T02:45:45.531Z,97147.17
2022-08-17T02:48:15.692Z,97144.16
2022-08-17T02:51:01.201Z,97143.13
2022-08-17T02:53:35.926Z,97146.17
2022-08-17T02:56:06.641Z,97145.27
2022-08-17T02:58:36.494Z,97150.10
2022-08-17T03:01:08.353Z,97147.48
2022-08-17T03:03:39.874Z,97148.23
2022-08-17T03:06:10.721Z,97146.52
2022-08-17T03:08:40.464Z,97148.55
2022-08-17T03:11:10.403Z,97145.51
2022-08-17T03:13:40.274Z,97146.30
2022-08-17T03:16:10.201Z,97147.15
2022-08-17T03:18:39.851Z,97151.76
2022-08-17T03:21:09.631Z,97152.04
2022-08-17T03:23:40.813Z,97152.27
2022-08-17T03:26:12.377Z,97151.03
2022-08-17T03:28:45.376Z,97147.67
2022-08-17T03:31:15.142Z,97149.56
2022-08-17T03:33:44.909Z,97150.13
2022-08-17T03:36:14.788Z,97147.52
2022-08-17T03:38:44.301Z,97147.28
2022-08-17T03:41:14.798Z,97150.13
2022-08-17T03:43:44.472Z,97145.98
2022-08-17T03:46:34.215Z,97147.28
2022-08-17T03:49:25.173Z,97144.80
2022-08-17T03:52:13.570Z,97149.23
2022-08-17T03:55:02.638Z,97148.10
2022-08-17T03:57:33.202Z,97154.47
2022-08-17T04:00:04.710Z,97153.55
2022-08-17T04:02:43.692Z,97155.09
2022-08-17T04:05:14.623Z,97158.27
2022-08-17T04:07:44.538Z,97159.61
2022-08-17T04:10:14.422Z,97163.38
2022-08-17T04:12:49.759Z,97165.10
2022-08-17T04:15:19.942Z,97167.11
2022-08-17T04:17:50.029Z,97167.52
2022-08-17T04:20:23.111Z,97167.73
2022-08-17T04:23:02.343Z,97168.08
2022-08-17T04:25:34.431Z,97168.35
2022-08-17T04:28:05.801Z,97168.61
2022-08-17T04:30:46.363Z,97172.65
2022-08-17T04:33:18.503Z,97172.97
2022-08-17T04:35:50.535Z,97172.34
2022-08-17T04:38:22.440Z,97172.88
2022-08-17T04:41:18.969Z,97174.33
2022-08-17T04:43:50.322Z,97180.17
2022-08-17T04:46:22.500Z,97180.13
2022-08-17T04:48:54.622Z,97182.43
2022-08-17T04:51:27.702Z,97182.23
2022-08-17T04:54:00.083Z,97178.11
2022-08-17T04:56:31.461Z,97175.70
2022-08-17T04:59:05.449Z,97177.23
2022-08-17T05:01:39.958Z,97177.80
2022-08-17T05:04:33.474Z,97182.20
2022-08-17T05:07:04.687Z,97181.80
2022-08-17T05:09:34.383Z,97180.83
2022-08-17T05:12:05.667Z,97180.18
2022-08-17T05:14:35.393Z,97183.73
2022-08-17T05:17:07.051Z,97184.67
2022-08-17T05:19:38.013Z,97184.95
2022-08-17T05:22:10.191Z,97185.86
2022-08-17T05:24:43.604Z,97191.08
2022-08-17T05:27:23.646Z,97187.41
2022-08-17T05:29:53.721Z,97193.56
2022-08-17T05:32:39.625Z,97189.83
2022-08-17T05:35:10.942Z,97191.30
2022-08-17T05:37:40.733Z,97196.61
2022-08-17T05:40:12.149Z,97198.59
2022-08-17T05:42:42.440Z,97202.43
2022-08-17T05:45:16.163Z,97201.75
2022-08-17T05:47:58.398Z,97203.17
2022-08-17T05:50:43.151Z,97202.56
2022-08-17T05:53:36.441Z,97204.00
2022-08-17T05:56:48.247Z,97208.38
2022-08-17T05:59:32.317Z,97214.47
2022-08-17T06:02:27.543Z,97208.98
2022-08-17T06:05:22.025Z,97209.88
2022-08-17T06:08:05.593Z,97210.43
2022-08-17T06:10:48.984Z,97204.16
2022-08-17T06:13:57.258Z,97205.45
2022-08-17T06:16:36.511Z,97203.52
2022-08-17T06:19:12.009Z,97203.52
2022-08-17T06:21:45.143Z,97208.73
2022-08-17T06:24:28.355Z,97214.59
2022-08-17T06:27:01.344Z,97214.45
2022-08-17T06:29:41.752Z,97214.27
2022-08-17T06:32:14.215Z,97215.77
2022-08-17T06:34:45.876Z,97215.96
2022-08-17T06:37:32.034Z,97212.69
2022-08-17T06:40:20.141Z,97218.40
2022-08-17T06:43:06.657Z,97221.45
2022-08-17T06:45:42.221Z,97223.69
2022-08-17T06:48:23.913Z,97220.12
2022-08-17T06:50:59.673Z,97220.40
2022-08-17T06:53:35.551Z,97222.54
2022-08-17T06:56:08.754Z,97220.83
2022-08-17T06:58:42.902Z,97223.76
2022-08-17T07:01:17.717Z,97225.50
2022-08-17T07:03:54.336Z,97228.95
2022-08-17T07:06:27.023Z,97234.81
2022-08-17T07:09:01.471Z,97230.95
2022-08-17T07:11:38.182Z,97233.11
2022-08-17T07:14:19.190Z,97238.83
2022-08-17T07:16:54.213Z,97236.27
2022-08-17T07:19:28.143Z,97237.77
2022-08-17T07:22:08.450Z,97237.00
2022-08-17T07:24:47.024Z,97241.93
2022-08-17T07:27:21.254Z,97240.55
2022-08-17T07:29:56.223Z,97244.77
2022-08-17T07:32:31.621Z,97242.95
2022-08-17T07:35:08.192Z,97247.37
2022-08-17T07:37:42.298Z,97242.11
2022-08-17T07:40:20.177Z,97242.70
2022-08-17T07:43:21.640Z,97240.85
2022-08-17T07:46:18.209Z,97245.79
2022-08-17T07:48:50.974Z,97250.11
2022-08-17T07:51:21.983Z,97252.20
2022-08-17T07:53:52.445Z,97249.14
2022-08-17T07:56:43.913Z,97245.08
2022-08-17T07:59:17.773Z,97238.91
2022-08-17T08:02:01.983Z,97237.86
2022-08-17T08:04:59.262Z,97234.35
2022-08-17T08:07:29.301Z,97229.19
2022-08-17T08:10:08.083Z,97229.65
2022-08-17T08:12:40.121Z,97231.55
2022-08-17T08:15:18.415Z,97227.05
2022-08-17T08:17:51.916Z,97233.14
2022-08-17T08:20:51.907Z,97236.59
2022-08-17T08:23:37.765Z,97239.25
2022-08-17T08:26:25.982Z,97243.75
2022-08-17T08:29:14.472Z,97246.19
2022-08-17T08:31:58.999Z,97251.60
2022-08-17T08:35:00.735Z,97250.09
2022-08-17T08:37:42.696Z,97249.55
2022-08-17T08:40:29.491Z,97247.89
2022-08-17T08:43:12.234Z,97244.76
2022-08-17T08:45:49.181Z,97242.70
2022-08-17T08:48:56.589Z,97242.18
2022-08-17T08:51:38.044Z,97246.99
2022-08-17T08:54:26.661Z,97247.20
2022-08-17T09:00:14.983Z,97243.75
2022-08-17T09:03:20.862Z,97240.20
2022-08-17T09:06:32.187Z,97241.67
2022-08-17T09:09:15.978Z,97244.67
2022-08-17T09:12:02.320Z,97247.91
2022-08-17T09:14:47.133Z,97244.42
2022-08-17T09:17:21.275Z,97243.63
2022-08-17T09:19:56.393Z,97249.48
2022-08-17T09:22:34.383Z,97249.02
2022-08-17T09:25:10.823Z,97246.20
2022-08-17T09:27:53.260Z,97248.55
2022-08-17T09:30:24.884Z,97249.15
2022-08-17T09:33:00.193Z,97252.92
2022-08-17T09:35:37.538Z,97255.92
2022-08-17T09:38:21.368Z,97257.30
2022-08-17T09:40:57.842Z,97260.90
2022-08-17T09:43:38.091Z,97257.41
2022-08-17T09:46:14.081Z,97258.27
2022-08-17T09:48:50.676Z,97258.93
2022-08-17T09:51:26.863Z,97257.58
2022-08-17T09:54:09.479Z,97257.09
2022-08-17T09:57:28.097Z,97257.52
2022-08-17T10:00:07.323Z,97260.11
2022-08-17T10:03:01.600Z,97258.02
2022-08-17T10:05:37.702Z,97258.84
2022-08-17T10:08:16.017Z,97260.39
2022-08-17T10:10:58.443Z,97256.61
2022-08-17T10:13:38.402Z,97261.84
2022-08-17T10:16:22.321Z,97263.83
2022-08-17T10:19:03.505Z,97263.02
2022-08-17T10:22:01.252Z,97264.58
2022-08-17T10:25:13.527Z,97265.06
2022-08-17T10:27:57.963Z,97265.59
2022-08-17T10:30:32.152Z,97262.36
2022-08-17T10:33:06.484Z,97258.33
2022-08-17T10:35:49.119Z,97257.57
2022-08-17T10:38:26.602Z,97251.98
2022-08-17T10:41:01.889Z,97260.15
2022-08-17T10:43:41.351Z,97262.39
2022-08-17T10:46:30.831Z,97260.98
2022-08-17T10:49:24.959Z,97259.50
2022-08-17T10:51:56.862Z,97261.27
2022-08-17T10:54:46.812Z,97263.30
2022-08-17T10:57:38.570Z,97261.13
2022-08-17T11:00:15.891Z,97260.65
2022-08-17T11:02:51.558Z,97266.67
2022-08-17T11:05:43.417Z,97268.72
2022-08-17T11:08:46.203Z,97269.64
2022-08-17T11:11:40.542Z,97261.86
2022-08-17T11:14:27.462Z,97269.15
2022-08-17T11:17:15.454Z,97263.46
2022-08-17T11:20:16.006Z,97262.98
2022-08-17T11:23:17.996Z,97258.77
2022-08-17T11:25:52.933Z,97256.95
2022-08-17T11:28:27.682Z,97254.93
2022-08-17T11:31:03.450Z,97253.80
2022-08-17T11:34:03.060Z,97245.88
2022-08-17T11:37:12.911Z,97244.90
2022-08-17T11:40:25.741Z,97244.45
2022-08-17T11:43:25.367Z,97245.49
2022-08-17T11:46:13.091Z,97247.63
2022-08-17T11:49:07.796Z,97243.27
2022-08-17T11:52:12.163Z,97239.23
2022-08-17T11:54:46.141Z,97234.24
2022-08-17T11:58:01.190Z,97236.27
2022-08-17T12:00:58.143Z,97239.89
2022-08-17T12:03:55.501Z,97243.69
2022-08-17T12:06:50.900Z,97245.88
2022-08-17T12:09:24.818Z,97246.20
2022-08-17T12:12:12.538Z,97246.55
2022-08-17T12:17:52.014Z,97247.38
2022-08-17T12:20:27.500Z,97246.27
2022-08-17T12:23:04.481Z,97247.33
2022-08-17T12:25:39.301Z,97250.08
2022-08-17T12:28:22.415Z,97249.56
2022-08-17T12:30:54.082Z,97244.02
2022-08-17T12:33:28.620Z,97245.27
2022-08-17T12:36:02.481Z,97243.05
2022-08-17T12:38:34.079Z,97243.16
2022-08-17T12:41:25.870Z,97244.34
2022-08-17T12:44:01.682Z,97237.08
2022-08-17T12:46:35.515Z,97240.90
2022-08-17T12:49:16.223Z,97243.13
2022-08-17T12:51:48.433Z,97244.13
2022-08-17T12:54:30.035Z,97248.80
2022-08-17T12:57:06.182Z,97246.94
2022-08-17T12:59:40.049Z,97251.82
2022-08-17T13:02:21.340Z,97246.80
2022-08-17T13:04:53.289Z,97251.66
2022-08-17T13:07:35.860Z,97245.77
2022-08-17T13:10:07.481Z,97243.77
2022-08-17T13:12:39.394Z,97245.05
2022-08-17T13:15:17.290Z,97244.27
2022-08-17T13:17:57.570Z,97243.30
2022-08-17T13:20:27.258Z,97241.28
2022-08-17T13:23:02.704Z,97241.21
2022-08-17T13:25:33.300Z,97237.23
2022-08-17T13:28:03.512Z,97239.58
2022-08-17T13:30:33.602Z,97239.13
2022-08-17T13:33:23.435Z,97242.24
2022-08-17T13:36:13.440Z,97241.36
2022-08-17T13:38:52.403Z,97240.04
2022-08-17T13:41:33.696Z,97241.73
2022-08-17T13:44:32.789Z,97244.90
2022-08-17T13:47:07.070Z,97247.42
2022-08-17T13:49:48.433Z,97240.65
2022-08-17T13:52:40.256Z,97241.02
2022-08-17T13:55:19.273Z,97242.08
2022-08-17T13:58:03.485Z,97243.10
2022-08-17T14:00:39.030Z,97245.80
2022-08-17T14:03:08.795Z,97247.83
2022-08-17T14:05:39.971Z,97252.91
2022-08-17T14:08:14.448Z,97253.42
2022-08-17T14:10:45.450Z,97249.94
2022-08-17T14:13:16.692Z,97246.77
2022-08-17T14:15:56.154Z,97242.34
2022-08-17T14:18:35.699Z,97244.00
2022-08-17T14:21:19.092Z,97245.29
2022-08-17T14:23:54.974Z,97249.17
2022-08-17T14:26:26.319Z,97261.88
2022-08-17T14:28:57.109Z,97257.10
2022-08-17T14:31:28.419Z,97251.33
2022-08-17T14:33:59.843Z,97250.05
2022-08-17T14:36:31.304Z,97256.52
2022-08-17T14:39:01.861Z,97259.33
2022-08-17T14:41:32.932Z,97258.55
2022-08-17T14:44:04.526Z,97265.95
2022-08-17T14:46:35.491Z,97271.19
2022-08-17T14:49:05.557Z,97268.06
2022-08-17T14:51:35.670Z,97275.23
2022-08-17T14:54:33.899Z,97278.81
2022-08-17T14:57:24.645Z,97273.06
2022-08-17T15:00:00.272Z,97273.95
2022-08-17T15:02:31.340Z,97277.48
2022-08-17T15:05:03.074Z,97281.02
2022-08-17T15:07:32.704Z,97282.71
2022-08-17T15:10:02.862Z,97287.55
2022-08-17T15:12:34.625Z,97284.83
2022-08-17T15:15:08.674Z,97278.44
2022-08-17T15:17:43.971Z,97280.85
2022-08-17T15:20:27.191Z,97278.20
2022-08-17T15:22:56.972Z,97277.73
2022-08-17T15:25:28.113Z,97279.57
2022-08-17T15:27:57.843Z,97280.33
2022-08-17T15:30:28.321Z,97276.29
2022-08-17T15:33:00.587Z,97277.30
2022-08-17T15:35:31.048Z,97274.32
2022-08-17T15:38:10.695Z,97275.21
2022-08-17T15:40:43.758Z,97279.48
2022-08-17T15:43:15.783Z,97281.56
2022-08-17T15:45:58.620Z,97282.19
2022-08-17T15:48:41.485Z,97283.45
2022-08-17T15:51:13.907Z,97285.16
2022-08-17T15:53:45.883Z,97282.39
2022-08-17T15:56:15.956Z,97278.53
2022-08-17T15:58:46.901Z,97274.80
2022-08-17T16:01:42.288Z,97272.48
2022-08-17T16:04:12.179Z,97267.92
2022-08-17T16:06:59.575Z,97270.25
2022-08-17T16:09:29.450Z,97272.46
2022-08-17T16:12:08.089Z,97277.59
2022-08-17T16:14:37.773Z,97280.23
2022-08-17T16:17:38.784Z,97286.46
2022-08-17T16:19:59.851Z,97285.27
2022-08-17T16:22:35.294Z,97284.83
2022-08-17T16:25:08.852Z,97283.01
2022-08-17T16:27:39.062Z,97286.46
2022-08-17T16:30:16.925Z,97284.80
2022-08-17T16:32:48.505Z,97291.16
2022-08-17T16:35:20.880Z,97294.98
2022-08-17T16:37:53.971Z,97294.77
2022-08-17T16:40:25.603Z,97293.52
2022-08-17T16:42:57.687Z,97296.23
2022-08-17T16:45:39.602Z,97293.45
2022-08-17T16:48:09.953Z,97303.30
2022-08-17T16:50:40.142Z,97302.05
2022-08-17T16:53:16.051Z,97297.15
2022-08-17T16:55:47.692Z,97300.64
2022-08-17T16:58:17.971Z,97299.50
2022-08-17T17:00:48.381Z,97300.71
2022-08-17T17:03:22.092Z,97297.52
2022-08-17T17:06:03.883Z,97296.58
2022-08-17T17:08:44.414Z,97297.41
2022-08-17T17:11:18.851Z,97310.02
2022-08-17T17:13:54.224Z,97311.44
2022-08-17T17:16:35.465Z,97306.94
2022-08-17T17:19:11.579Z,97307.29
2022-08-17T17:21:51.481Z,97309.14
2022-08-17T17:24:32.762Z,97308.98
2022-08-17T17:27:17.352Z,97306.30
2022-08-17T17:29:57.739Z,97306.99
2022-08-17T17:32:37.421Z,97311.52
2022-08-17T17:35:12.401Z,97310.74
2022-08-17T17:37:44.541Z,97308.65
2022-08-17T17:40:22.601Z,97313.52
2022-08-17T17:42:55.322Z,97316.17
2022-08-17T17:45:30.951Z,97321.41
2022-08-17T17:48:00.801Z,97325.75
2022-08-17T17:50:36.943Z,97321.63
2022-08-17T17:53:11.061Z,97325.64
2022-08-17T17:55:52.062Z,97326.53
2022-08-17T17:58:36.273Z,97331.83
2022-08-17T18:01:24.398Z,97334.35
2022-08-17T18:04:17.010Z,97331.71
2022-08-17T18:07:03.375Z,97329.03
2022-08-17T18:10:01.383Z,97329.97
2022-08-17T18:12:44.342Z,97333.33
2022-08-17T18:15:29.439Z,97338.48
2022-08-17T18:18:31.593Z,97338.27
2022-08-17T18:21:05.812Z,97345.69
2022-08-17T18:23:37.211Z,97347.28
2022-08-17T18:26:09.221Z,97353.48
2022-08-17T18:28:43.941Z,97353.12
2022-08-17T18:31:19.651Z,97357.30
2022-08-17T18:33:54.185Z,97359.10
2022-08-17T18:36:32.464Z,97360.08
2022-08-17T18:39:18.251Z,97361.81
2022-08-17T18:41:52.344Z,97364.42
2022-08-17T18:44:29.237Z,97365.70
2022-08-17T18:47:16.148Z,97364.17
2022-08-17T18:49:49.952Z,97364.20
2022-08-17T18:52:27.970Z,97361.59
2022-08-17T18:55:13.505Z,97362.05
2022-08-17T18:57:48.203Z,97360.64
2022-08-17T19:00:33.492Z,97356.70
2022-08-17T19:03:07.477Z,97357.29
2022-08-17T19:05:46.969Z,97357.45
2022-08-17T19:08:23.875Z,97359.71
2022-08-17T19:10:58.619Z,97361.06
2022-08-17T19:13:32.053Z,97358.59
2022-08-17T19:16:14.177Z,97361.67
2022-08-17T19:18:49.604Z,97362.76
2022-08-17T19:21:23.384Z,97363.39
2022-08-17T19:23:58.728Z,97368.89
2022-08-17T19:26:54.896Z,97369.63
2022-08-17T19:29:29.992Z,97370.23
2022-08-17T19:32:00.400Z,97368.83
2022-08-17T19:34:33.906Z,97367.70
2022-08-17T19:37:17.395Z,97374.08
2022-08-17T19:39:55.720Z,97373.23
2022-08-17T19:42:37.062Z,97373.23
2022-08-17T19:45:14.276Z,97373.08
2022-08-17T19:47:56.464Z,97379.63
2022-08-17T19:50:37.950Z,97383.83
2022-08-17T19:53:17.385Z,97385.64
2022-08-17T19:55:54.155Z,97388.17
2022-08-17T19:58:34.112Z,97392.48
2022-08-17T20:01:10.721Z,97397.09
2022-08-17T20:03:51.399Z,97393.94
2022-08-17T20:06:23.616Z,97396.21
2022-08-17T20:09:04.675Z,97392.66
2022-08-17T20:11:40.913Z,97392.45
2022-08-17T20:14:15.334Z,97388.52
2022-08-17T20:16:45.368Z,97391.48
2022-08-17T20:19:23.134Z,97391.36
2022-08-17T20:21:58.444Z,97391.70
2022-08-17T20:24:36.041Z,97392.36
2022-08-17T20:27:21.656Z,97386.02
2022-08-17T20:30:10.074Z,97383.50
2022-08-17T20:32:54.972Z,97386.41
2022-08-17T20:35:30.792Z,97390.98
2022-08-17T20:38:03.082Z,97391.45
2022-08-17T20:40:38.469Z,97392.14
2022-08-17T20:43:45.851Z,97393.48
2022-08-17T20:46:27.809Z,97401.41
2022-08-17T20:49:14.627Z,97409.00
2022-08-17T20:52:01.489Z,97414.46
2022-08-17T20:54:52.739Z,97412.30
2022-08-17T20:57:46.104Z,97411.52
2022-08-17T21:00:34.669Z,97412.38
2022-08-17T21:03:50.542Z,97415.42
2022-08-17T21:06:24.112Z,97412.92
2022-08-17T21:09:21.481Z,97411.48
2022-08-17T21:12:04.673Z,97405.42
2022-08-17T21:14:55.990Z,97402.59
2022-08-17T21:17:41.593Z,97395.61
2022-08-17T21:20:34.783Z,97394.77
2022-08-17T21:23:26.722Z,97395.38
2022-08-17T21:26:28.073Z,97396.85
2022-08-17T21:29:31.396Z,97397.45
2022-08-17T21:32:24.640Z,97399.21
2022-08-17T21:35:24.471Z,97404.36
2022-08-17T21:38:00.076Z,97406.77
2022-08-17T21:40:33.140Z,97406.69
2022-08-17T21:43:17.085Z,97407.64
2022-08-17T21:45:57.232Z,97406.91
2022-08-17T21:48:28.523Z,97401.48
2022-08-17T21:51:01.544Z,97395.23
2022-08-17T21:53:38.758Z,97391.02
2022-08-17T21:56:11.110Z,97386.56
2022-08-17T21:58:48.316Z,97384.15
2022-08-17T22:01:25.453Z,97375.77
2022-08-17T22:04:18.943Z,97368.74
2022-08-17T22:06:52.333Z,97374.06
2022-08-17T22:09:28.911Z,97372.37
2022-08-17T22:12:04.822Z,97366.25
2022-08-17T22:14:53.003Z,97356.98
2022-08-17T22:17:26.309Z,97354.23
2022-08-17T22:19:59.694Z,97352.54
2022-08-17T22:22:56.071Z,97352.88
2022-08-17T22:25:29.122Z,97349.02
2022-08-17T22:27:59.927Z,97349.47
2022-08-17T22:30:38.428Z,97346.33
2022-08-17T22:33:37.153Z,97348.26
2022-08-17T22:36:24.817Z,97346.83
2022-08-17T22:38:57.044Z,97340.02
2022-08-17T22:41:43.032Z,97336.00
2022-08-17T22:44:23.863Z,97338.29
2022-08-17T22:47:03.189Z,97340.35
2022-08-17T22:49:54.235Z,97342.60
2022-08-17T22:52:32.516Z,97344.45
2022-08-17T22:55:24.564Z,97345.42
2022-08-17T22:58:12.484Z,97344.60
2022-08-17T23:00:44.409Z,97349.73
2022-08-17T23:03:18.826Z,97351.21
2022-08-17T23:06:03.064Z,97348.95
2022-08-17T23:08:35.294Z,97349.00
2022-08-17T23:11:07.224Z,97342.86
2022-08-17T23:13:38.100Z,97340.99
2022-08-17T23:16:07.975Z,97342.19
2022-08-17T23:18:37.502Z,97339.04
2022-08-17T23:21:07.603Z,97337.39
2022-08-17T23:23:39.125Z,97338.73
2022-08-17T23:26:10.934Z,97341.66
2022-08-17T23:28:43.464Z,97347.10
2022-08-17T23:31:16.475Z,97352.36
2022-08-17T23:33:47.386Z,97351.04
2022-08-17T23:36:17.656Z,97352.84
2022-08-17T23:38:48.046Z,97358.99
2022-08-17T23:41:20.395Z,97356.48
2022-08-17T23:43:52.085Z,97350.13
2022-08-17T23:46:22.092Z,97348.55
2022-08-17T23:48:53.401Z,97349.16
2022-08-17T23:51:26.335Z,97347.48
2022-08-17T23:54:07.998Z,97347.02
2022-08-17T23:56:43.593Z,97346.25
2022-08-17T23:59:13.936Z,97349.38
